createdAt,value
2023-04-30T00:35:19.881Z,54.20
2023-04-30T00:53:06.244Z,54.60
2023-04-30T00:58:59.408Z,54.80
2023-04-30T01:35:20.986Z,54.20
2023-04-30T01:46:49.530Z,54.30
2023-04-30T02:39:56.576Z,54.20
2023-04-30T09:04:58.418Z,55.70
2023-04-30T09:23:15.735Z,55.00
2023-04-30T10:22:16.936Z,53.80
2023-04-30T10:27:31.103Z,54.30
2023-04-30T10:32:52.294Z,54.20
2023-04-30T10:38:39.227Z,53.60
2023-04-30T10:44:26.558Z,53.00
2023-04-30T10:49:42.857Z,53.50
2023-04-30T10:55:39.154Z,52.90
2023-04-30T11:01:26.664Z,53.00
2023-04-30T11:07:50.487Z,52.00
2023-04-30T11:13:11.592Z,51.70
2023-04-30T11:18:18.145Z,51.20
2023-04-30T11:23:41.806Z,51.90
2023-04-30T11:29:05.774Z,51.40
2023-04-30T11:34:24.820Z,50.30
2023-04-30T11:39:48.203Z,51.50
2023-04-30T11:46:07.478Z,50.50
2023-04-30T11:52:08.961Z,50.50
2023-04-30T12:46:49.131Z,48.40
2023-04-30T13:17:44.861Z,46.70
2023-04-30T13:42:30.704Z,47.70
2023-04-30T16:08:25.130Z,43.50
2023-04-30T16:14:30.046Z,43.20
2023-04-30T16:26:32.293Z,43.80
2023-04-30T16:38:20.505Z,43.20
2023-04-30T16:50:07.766Z,43.70
2023-04-30T17:13:32.897Z,43.80
2023-04-30T17:19:14.205Z,41.10
2023-04-30T17:25:03.411Z,43.00
2023-04-30T17:37:35.277Z,43.20
2023-04-30T17:49:18.046Z,43.20
2023-04-30T17:54:51.643Z,42.80
2023-04-30T18:06:35.313Z,43.10
2023-04-30T18:12:11.900Z,43.70
2023-04-30T18:18:05.113Z,43.50
2023-04-30T18:23:46.060Z,43.80
2023-04-30T18:29:32.808Z,43.40
2023-04-30T18:34:42.813Z,43.80
2023-04-30T18:39:59.649Z,43.80
2023-04-30T18:45:12.075Z,43.80
2023-04-30T18:50:48.940Z,43.90
2023-04-30T18:55:53.642Z,44.20
2023-04-30T19:00:59.747Z,44.20
2023-04-30T19:06:04.161Z,44.20
2023-04-30T19:11:10.889Z,44.20
2023-04-30T19:16:34.439Z,44.10
2023-04-30T19:21:38.409Z,44.20
2023-04-30T19:26:43.465Z,44.40
2023-04-30T19:31:54.866Z,44.60
2023-04-30T19:37:00.940Z,44.60
2023-04-30T19:42:18.131Z,44.60
2023-04-30T19:47:53.121Z,44.60
2023-04-30T19:53:20.911Z,44.60
2023-04-30T19:58:49.966Z,44.70
2023-04-30T20:04:15.028Z,44.70
2023-04-30T20:09:38.866Z,44.80
2023-04-30T20:15:01.961Z,44.80
2023-04-30T20:20:30.075Z,44.70
2023-04-30T20:31:39.993Z,44.60
2023-04-30T20:37:10.988Z,44.70
2023-04-30T20:42:36.238Z,44.70
2023-04-30T20:48:07.518Z,44.90
2023-04-30T20:53:34.011Z,45.10
2023-04-30T20:58:57.123Z,45.10
2023-04-30T21:04:19.972Z,45.10
2023-04-30T21:09:45.198Z,45.20
2023-04-30T21:15:08.998Z,45.20
2023-04-30T21:20:32.890Z,45.20
2023-04-30T21:26:02.083Z,45.30
2023-04-30T21:31:25.115Z,45.50
2023-04-30T21:36:48.055Z,45.30
2023-04-30T21:42:12.951Z,45.60
2023-04-30T21:47:36.978Z,45.40
2023-04-30T21:53:03.043Z,45.60
2023-04-30T21:58:27.980Z,45.60
2023-04-30T22:03:54.108Z,45.70
2023-04-30T22:09:21.122Z,45.60
2023-04-30T22:14:47.972Z,45.80
2023-04-30T22:20:15.976Z,45.70
2023-04-30T22:25:39.116Z,45.70
2023-04-30T22:31:14.175Z,45.50
2023-04-30T22:36:37.088Z,46.00
2023-04-30T22:42:01.097Z,45.90
2023-04-30T22:47:26.238Z,45.70
2023-04-30T22:52:49.052Z,46.20
2023-04-30T22:58:13.259Z,46.10
2023-04-30T23:03:39.013Z,46.30
2023-04-30T23:09:02.250Z,46.20
2023-04-30T23:14:25.186Z,46.40
2023-04-30T23:19:50.228Z,46.20
2023-04-30T23:25:13.231Z,46.50
2023-04-30T23:30:38.083Z,46.10
2023-04-30T23:36:03.101Z,46.40
2023-04-30T23:41:26.049Z,46.20
2023-04-30T23:46:49.137Z,46.40
2023-04-30T23:52:14.052Z,46.20
2023-04-30T23:57:37.124Z,46.60
